Compton, United Kingdom
Current Conditions -  °F | °C
As of 3:50 PM on Thursday 23 Oct 2014 (Local Time) from EGHI Reporting Station
Rain Showers Rain Showers  
Wind Chill: 15°   Ceiling: 2000
Heat Index: 15°   Visibility: 6mi
Dew Point: 13°   Wind: 13mph
Humidity: 88%   Direction: 240°WSW
Pressure: 30.09"   Gusts: NA
Location:  51.02°N, 1.34°W
Report Text: EGHI 231450Z 24011KT 210V270 9999 VCSH SCT010 BKN020 15/13 Q1019
Loading
Personal Weather Stations






























Interactive Weather Map
Tropical Storm Tracking
New forecast layout! Learn more

10-Day Weather Forecast

Advertisements
Track Severe Weather on mobile